PrentiSS Brown — WDE6848 — position and weather

sailwx.info

Track history (hours):
 
Tides and Currents Weather Stations Pressure Air Temp Water Temp Dewpoint Dewpoint Depression Visibility Wind Speed Wind Dir Waves Ship Positions

PrentiSS Brown

Owner: Port City Marine Services Inc, Muskegon, MI. More information available from US FCC via Universal Licensing System and Coast Guard Vessel Documentation Center.

Last reported at 2015-Jul-30 12:33 UTC. Time now 2015-Aug-01 11:51 UTC.
Position N 44°57' W 086°07'.

; draft 5.3 m.

Type: Other ship. MMSI: 366922280.

Date/timePositionNaut miles runAvg speedWind from/ knotsBaromVisibWave heightAir tempDewpointWater temp
2015-Jul-30 12:33N 44°57' W 086°07'8 7.8
2015-Jul-30 11:33N 45°00' W 085°57'8 7.9
2015-Jul-30 10:33N 45°06' W 085°49'8 7.8
2015-Jul-30 09:33N 45°11' W 085°41'8 7.6
2015-Jul-30 08:33N 45°16' W 085°32'8 7.7
2015-Jul-30 07:33N 45°19' W 085°23'4 3.9
2015-Jul-30 06:33N 45°19' W 085°17'0 0.3
2015-Jul-30 05:33N 45°19' W 085°18'0 0.0
2015-Jul-30 04:33N 45°19' W 085°18'0 0.0
2015-Jul-30 03:33N 45°19' W 085°18'0 0.0
2015-Jul-30 02:33N 45°19' W 085°18'0 0.0
2015-Jul-30 01:33N 45°19' W 085°18'0 0.0
2015-Jul-30 00:33N 45°19' W 085°18'2 1.7
2015-Jul-29 23:33N 45°20' W 085°20'9 9.4
2015-Jul-29 22:33N 45°16' W 085°32'9 9.4
2015-Jul-29 21:33N 45°10' W 085°43'9 9.4
2015-Jul-29 20:33N 45°04' W 085°52'9 9.1
2015-Jul-29 19:33N 44°58' W 086°03'  
2015-Jul-26 18:31N 44°54' W 086°13'8 7.9
2015-Jul-26 17:33N 44°58' W 086°04'8 8.0
2015-Jul-26 16:33N 45°02' W 085°54'8 8.0
2015-Jul-26 15:33N 45°08' W 085°47'8 8.1
2015-Jul-26 14:33N 45°13' W 085°38'8 8.2
2015-Jul-26 13:33N 45°17' W 085°28'8 7.6
2015-Jul-26 12:33N 45°20' W 085°18'1 0.9
2015-Jul-26 11:33N 45°19' W 085°18'0 0.0
2015-Jul-26 10:33N 45°19' W 085°18'0 0.0
2015-Jul-26 09:33N 45°19' W 085°18'0 0.0
2015-Jul-26 08:33N 45°19' W 085°18'0 0.0
2015-Jul-26 07:33N 45°19' W 085°18'0 0.0
2015-Jul-26 06:33N 45°19' W 085°18'1 1.0
2015-Jul-26 05:33N 45°20' W 085°17'5 4.7
2015-Jul-26 04:33N 45°19' W 085°23'9 9.5
2015-Jul-26 03:33N 45°14' W 085°35'9 9.4
2015-Jul-26 02:33N 45°09' W 085°46'9 9.4
2015-Jul-26 01:33N 45°02' W 085°55'9 9.4
2015-Jul-26 00:33N 44°57' W 086°06'  
Track history (hours):
 
Tides and Currents Weather Stations Pressure Air Temp Water Temp Dewpoint Dewpoint Depression Visibility Wind Speed Wind Dir Waves Ship Positions

PrentiSS Brown

Owner: Port City Marine Services Inc, Muskegon, MI. More information available from US FCC via Universal Licensing System and Coast Guard Vessel Documentation Center.

Last reported at 2015-Jul-30 12:33 UTC. Time now 2015-Aug-01 11:51 UTC.
Position N 44°57' W 086°07'.

; draft 5.3 m.

Type: Other ship. MMSI: 366922280.

Date/timePositionNaut miles runAvg speedWind from/ knotsBaromVisibWave heightAir tempDewpointWater temp
2015-Jul-30 12:33N 44°57' W 086°07'8 7.8
2015-Jul-30 11:33N 45°00' W 085°57'8 7.9
2015-Jul-30 10:33N 45°06' W 085°49'8 7.8
2015-Jul-30 09:33N 45°11' W 085°41'8 7.6
2015-Jul-30 08:33N 45°16' W 085°32'8 7.7
2015-Jul-30 07:33N 45°19' W 085°23'4 3.9
2015-Jul-30 06:33N 45°19' W 085°17'0 0.3
2015-Jul-30 05:33N 45°19' W 085°18'0 0.0
2015-Jul-30 04:33N 45°19' W 085°18'0 0.0
2015-Jul-30 03:33N 45°19' W 085°18'0 0.0
2015-Jul-30 02:33N 45°19' W 085°18'0 0.0
2015-Jul-30 01:33N 45°19' W 085°18'0 0.0
2015-Jul-30 00:33N 45°19' W 085°18'2 1.7
2015-Jul-29 23:33N 45°20' W 085°20'9 9.4
2015-Jul-29 22:33N 45°16' W 085°32'9 9.4
2015-Jul-29 21:33N 45°10' W 085°43'9 9.4
2015-Jul-29 20:33N 45°04' W 085°52'9 9.1
2015-Jul-29 19:33N 44°58' W 086°03'  
2015-Jul-26 18:31N 44°54' W 086°13'8 7.9
2015-Jul-26 17:33N 44°58' W 086°04'8 8.0
2015-Jul-26 16:33N 45°02' W 085°54'8 8.0
2015-Jul-26 15:33N 45°08' W 085°47'8 8.1
2015-Jul-26 14:33N 45°13' W 085°38'8 8.2
2015-Jul-26 13:33N 45°17' W 085°28'8 7.6
2015-Jul-26 12:33N 45°20' W 085°18'1 0.9
2015-Jul-26 11:33N 45°19' W 085°18'0 0.0
2015-Jul-26 10:33N 45°19' W 085°18'0 0.0
2015-Jul-26 09:33N 45°19' W 085°18'0 0.0
2015-Jul-26 08:33N 45°19' W 085°18'0 0.0
2015-Jul-26 07:33N 45°19' W 085°18'0 0.0
2015-Jul-26 06:33N 45°19' W 085°18'1 1.0
2015-Jul-26 05:33N 45°20' W 085°17'5 4.7
2015-Jul-26 04:33N 45°19' W 085°23'9 9.5
2015-Jul-26 03:33N 45°14' W 085°35'9 9.4
2015-Jul-26 02:33N 45°09' W 085°46'9 9.4
2015-Jul-26 01:33N 45°02' W 085°55'9 9.4
2015-Jul-26 00:33N 44°57' W 086°06'  

Dump ship's entire track history